createdAt,value
2019-02-26T00:00:29.000Z,24.88
2019-02-26T00:10:29.000Z,24.8
2019-02-26T00:20:29.000Z,24.75
2019-02-26T00:30:32.000Z,24.69
2019-02-26T00:40:29.000Z,24.62
2019-02-26T00:50:29.000Z,24.55
2019-02-26T01:00:29.000Z,24.51
2019-02-26T01:10:29.000Z,24.44
2019-02-26T01:20:29.000Z,24.38
2019-02-26T01:30:29.000Z,24.33
2019-02-26T01:40:29.000Z,24.28
2019-02-26T01:50:29.000Z,24.19
2019-02-26T02:00:29.000Z,24.13
2019-02-26T02:10:29.000Z,24.1
2019-02-26T02:20:29.000Z,24.03
2019-02-26T02:30:29.000Z,24
2019-02-26T02:40:29.000Z,23.87
2019-02-26T02:50:29.000Z,23.88
2019-02-26T03:00:29.000Z,23.78
2019-02-26T03:10:29.000Z,23.76
2019-02-26T03:20:29.000Z,23.74
2019-02-26T03:30:29.000Z,23.67
2019-02-26T03:40:29.000Z,23.64
2019-02-26T03:50:29.000Z,23.57
2019-02-26T04:00:29.000Z,23.56
2019-02-26T04:10:29.000Z,23.48
2019-02-26T04:20:29.000Z,23.49
2019-02-26T04:30:29.000Z,23.43
2019-02-26T04:40:29.000Z,23.38
2019-02-26T04:50:29.000Z,23.38
2019-02-26T05:00:29.000Z,23.37
2019-02-26T05:10:29.000Z,23.31
2019-02-26T05:20:29.000Z,23.35
2019-02-26T05:30:29.000Z,23.31
2019-02-26T05:40:29.000Z,23.31
2019-02-26T05:50:29.000Z,23.35
2019-02-26T06:00:29.000Z,23.31
2019-02-26T06:10:29.000Z,23.33
2019-02-26T06:20:29.000Z,23.31
2019-02-26T06:30:29.000Z,23.42
2019-02-26T06:40:29.000Z,23.42
2019-02-26T06:50:29.000Z,23.43
2019-02-26T07:00:29.000Z,23.47
2019-02-26T07:10:29.000Z,23.46
2019-02-26T07:20:29.000Z,23.48
2019-02-26T07:30:30.000Z,23.51
2019-02-26T07:40:30.000Z,23.48
2019-02-26T07:50:30.000Z,23.53
2019-02-26T10:03:31.000Z,24.19
2019-02-26T10:13:31.000Z,24.33
2019-02-26T10:23:31.000Z,24.55
2019-02-26T10:33:31.000Z,24.72
2019-02-26T10:43:31.000Z,24.93
2019-02-26T10:53:31.000Z,25.02
2019-02-26T11:03:31.000Z,25.16
2019-02-26T11:13:32.000Z,25.38
2019-02-26T11:23:32.000Z,25.53
2019-02-26T11:33:32.000Z,25.64
2019-02-26T11:43:32.000Z,25.72
2019-02-26T11:53:32.000Z,25.84
2019-02-26T12:03:32.000Z,26
2019-02-26T12:13:32.000Z,26.12
2019-02-26T12:23:32.000Z,26.22
2019-02-26T12:33:32.000Z,26.3
2019-02-26T12:43:32.000Z,26.37
2019-02-26T12:53:32.000Z,26.47
2019-02-26T13:03:32.000Z,26.46
2019-02-26T13:13:32.000Z,26.42
2019-02-26T13:23:32.000Z,26.34
2019-02-26T13:33:32.000Z,26.36
2019-02-26T13:43:32.000Z,26.35
2019-02-26T13:53:32.000Z,26.38
2019-02-26T14:03:32.000Z,26.33
2019-02-26T14:13:32.000Z,26.35
2019-02-26T14:23:32.000Z,26.33
2019-02-26T14:33:32.000Z,26.3
2019-02-26T14:43:32.000Z,26.26
2019-02-26T14:53:32.000Z,26.23
2019-02-26T15:03:32.000Z,26.2
2019-02-26T15:13:32.000Z,26.19
2019-02-26T15:23:32.000Z,26.13
2019-02-26T15:33:32.000Z,26.08
2019-02-26T15:53:32.000Z,26.02
2019-02-26T16:03:32.000Z,25.98
2019-02-26T16:13:32.000Z,25.93
2019-02-26T16:23:34.000Z,25.89
2019-02-26T16:33:32.000Z,25.89
2019-02-26T16:43:32.000Z,25.85
2019-02-26T16:53:32.000Z,25.81
2019-02-26T17:03:32.000Z,25.77
2019-02-26T17:13:32.000Z,25.77
2019-02-26T17:23:32.000Z,25.83
2019-02-26T17:33:33.000Z,25.72
2019-02-26T17:43:32.000Z,25.68
2019-02-26T17:53:32.000Z,25.63
2019-02-26T18:03:32.000Z,25.58
2019-02-26T18:13:32.000Z,25.57
2019-02-26T18:23:32.000Z,25.53
2019-02-26T18:33:32.000Z,25.47
2019-02-26T18:43:32.000Z,25.43
2019-02-26T19:03:32.000Z,25.34
2019-02-26T19:13:32.000Z,25.32
2019-02-26T19:23:33.000Z,25.27
2019-02-26T19:33:33.000Z,25.22
2019-02-26T19:43:33.000Z,25.21
2019-02-26T19:53:33.000Z,25.16
2019-02-26T20:03:33.000Z,25.15
2019-02-26T20:13:33.000Z,25.11
2019-02-26T20:23:33.000Z,25.09
2019-02-26T20:53:33.000Z,24.99
2019-02-26T21:03:33.000Z,25.01
2019-02-26T21:13:33.000Z,25.04
2019-02-26T21:23:33.000Z,25.02
2019-02-26T21:43:33.000Z,24.95
2019-02-26T21:53:33.000Z,24.91
2019-02-26T22:03:33.000Z,24.88
2019-02-26T22:13:33.000Z,24.85
2019-02-26T22:23:33.000Z,24.84
2019-02-26T22:33:33.000Z,24.86
2019-02-26T22:43:33.000Z,24.77
2019-02-26T22:53:33.000Z,24.73
2019-02-26T23:03:33.000Z,24.69
2019-02-26T23:13:33.000Z,24.64
2019-02-26T23:23:33.000Z,24.57
2019-02-26T23:33:33.000Z,24.49
2019-02-26T23:43:33.000Z,24.46
2019-02-26T23:53:33.000Z,24.4
